createdAt,value
2023-02-15T00:04:46.572Z,4.65
2023-02-15T00:14:49.301Z,4.46
2023-02-15T00:24:53.126Z,4.51
2023-02-15T00:34:55.619Z,4.50
2023-02-15T00:44:59.423Z,4.45
2023-02-15T00:55:02.170Z,4.25
2023-02-15T01:05:10.062Z,4.26
2023-02-15T01:15:12.594Z,4.36
2023-02-15T01:25:16.492Z,4.07
2023-02-15T01:35:19.034Z,3.98
2023-02-15T01:45:28.538Z,4.02
2023-02-15T01:55:46.103Z,4.00
2023-02-15T02:05:49.948Z,3.81
2023-02-15T02:15:59.675Z,3.85
2023-02-15T02:26:23.463Z,3.87
2023-02-15T02:36:33.080Z,3.81
2023-02-15T02:46:37.999Z,3.52
2023-02-15T02:56:55.549Z,3.53
2023-02-15T03:07:01.253Z,3.30
2023-02-15T03:17:06.371Z,3.24
2023-02-15T03:27:12.762Z,3.20
2023-02-15T03:37:17.720Z,3.17
2023-02-15T03:47:23.107Z,3.17
2023-02-15T03:57:44.455Z,3.23
2023-02-15T04:07:48.453Z,3.25
2023-02-15T04:17:51.168Z,3.31
2023-02-15T04:27:57.200Z,3.20
2023-02-15T04:37:59.707Z,3.06
2023-02-15T04:48:03.608Z,2.98
2023-02-15T04:58:06.229Z,2.97
2023-02-15T05:08:10.068Z,2.70
2023-02-15T05:18:15.449Z,2.61
2023-02-15T05:28:21.926Z,2.69
2023-02-15T05:38:24.412Z,2.75
2023-02-15T05:48:29.064Z,2.73
2023-02-15T05:58:32.855Z,2.73
2023-02-15T06:08:37.519Z,2.66
2023-02-15T06:18:40.044Z,2.50
2023-02-15T06:28:44.016Z,2.68
2023-02-15T06:38:46.564Z,2.70
2023-02-15T06:48:50.393Z,2.77
2023-02-15T06:58:53.696Z,2.86
2023-02-15T07:08:58.197Z,2.97
2023-02-15T07:19:00.672Z,2.83
2023-02-15T07:29:18.865Z,2.69
2023-02-15T07:39:23.146Z,2.97
2023-02-15T07:49:25.888Z,3.16
2023-02-15T07:59:43.385Z,3.31
2023-02-15T08:09:47.447Z,3.31
2023-02-15T08:19:50.012Z,3.60
2023-02-15T08:29:53.921Z,3.93
2023-02-15T08:39:56.738Z,4.07
2023-02-15T08:50:00.564Z,4.48
2023-02-15T09:00:05.654Z,4.80
2023-02-15T09:10:12.829Z,5.10
2023-02-15T09:20:15.309Z,5.44
2023-02-15T09:30:22.443Z,5.73
2023-02-15T09:40:25.499Z,5.99
2023-02-15T09:50:43.150Z,6.31
2023-02-15T10:01:01.117Z,6.68
2023-02-15T10:11:25.030Z,7.05
2023-02-15T10:21:41.252Z,7.57
2023-02-15T10:31:58.871Z,8.36
2023-02-15T10:42:08.793Z,9.17
2023-02-15T10:52:18.991Z,9.84
2023-02-15T11:02:27.925Z,10.69
2023-02-15T11:12:31.565Z,11.28
2023-02-15T11:22:35.722Z,12.10
2023-02-15T11:32:45.478Z,12.91
2023-02-15T11:42:51.516Z,13.56
2023-02-15T11:52:54.799Z,14.77
2023-02-15T12:02:59.352Z,15.10
2023-02-15T12:13:11.036Z,15.78
2023-02-15T12:23:16.122Z,17.36
2023-02-15T12:33:24.542Z,18.22
2023-02-15T12:43:29.839Z,19.20
2023-02-15T12:53:33.526Z,19.68
2023-02-15T13:03:38.378Z,20.18
2023-02-15T13:13:49.832Z,21.73
2023-02-15T13:23:55.409Z,22.35
2023-02-15T13:34:00.537Z,22.34
2023-02-15T13:44:14.202Z,20.84
2023-02-15T13:54:43.757Z,20.82
2023-02-15T14:05:11.832Z,19.86
2023-02-15T14:15:26.691Z,19.16
2023-02-15T14:25:33.174Z,18.54
2023-02-15T14:35:36.126Z,18.21
2023-02-15T14:45:44.578Z,18.11
2023-02-15T14:55:47.128Z,17.31
2023-02-15T15:05:53.545Z,17.25
2023-02-15T15:15:56.350Z,16.50
2023-02-15T15:26:20.428Z,15.69
2023-02-15T15:36:55.914Z,15.20
2023-02-15T15:47:12.571Z,14.20
2023-02-15T15:57:32.944Z,13.58
2023-02-15T16:07:36.842Z,13.18
2023-02-15T16:17:39.400Z,12.60
2023-02-15T16:27:56.873Z,12.44
2023-02-15T16:38:00.784Z,12.15
2023-02-15T16:48:07.708Z,11.70
2023-02-15T16:58:16.450Z,11.30
2023-02-15T17:08:20.482Z,11.07
2023-02-15T17:18:25.372Z,10.83
2023-02-15T17:28:29.353Z,10.51
2023-02-15T17:38:33.398Z,10.35
2023-02-15T17:48:37.355Z,10.08
2023-02-15T17:58:41.250Z,9.91
2023-02-15T18:09:01.963Z,9.71
2023-02-15T18:19:06.383Z,9.62
2023-02-15T18:29:09.035Z,9.55
2023-02-15T18:39:26.238Z,9.32
2023-02-15T18:49:29.922Z,9.17
2023-02-15T18:59:34.675Z,9.08
2023-02-15T19:09:37.605Z,9.03
2023-02-15T19:19:41.762Z,8.88
2023-02-15T19:29:44.594Z,9.77
2023-02-15T19:39:48.501Z,9.11
2023-02-15T19:49:51.117Z,8.64
2023-02-15T19:59:54.984Z,8.62
2023-02-15T20:09:57.647Z,8.48
2023-02-15T20:20:01.539Z,8.45
2023-02-15T20:30:04.500Z,8.17
2023-02-15T20:40:13.776Z,8.17
2023-02-15T20:50:17.611Z,7.85
2023-02-15T21:00:26.168Z,7.78
2023-02-15T21:10:30.289Z,7.60
2023-02-15T21:20:36.186Z,7.65
2023-02-15T21:30:38.994Z,7.66
2023-02-15T21:40:46.651Z,7.46
2023-02-15T21:51:07.149Z,7.36
2023-02-15T22:01:18.761Z,7.59
2023-02-15T22:11:23.114Z,7.46
2023-02-15T22:21:29.652Z,7.46
2023-02-15T22:31:32.358Z,7.31
2023-02-15T22:41:36.847Z,7.48
2023-02-15T22:51:39.308Z,7.56
2023-02-15T23:01:43.151Z,7.44
2023-02-15T23:11:46.764Z,7.47
2023-02-15T23:21:50.663Z,7.20
2023-02-15T23:31:54.376Z,6.93
2023-02-15T23:41:58.705Z,6.59
2023-02-15T23:52:01.776Z,6.46
